Time;durP1;ratioP1;P1;durP2;ratioP2;P2;SDS_P1;SDS_P2;PMS_P1;PMS_P2;Temp;Humidity;BMP_temperature;BMP_pressure;BME280_temperature;BME280_humidity;BME280_pressure;Samples;Min_cycle;Max_cycle;Signal;HPM_P1;HPM_P2
2024/03/20 00:03:52;;;;;;;4.22;2.70;;;22.00;48.90;;;;;;10329132;28;20047;-63
2024/03/20 00:08:53;;;;;;;3.05;2.50;;;22.10;48.60;;;;;;10325601;28;20738;-63
2024/03/20 00:13:55;;;;;;;3.95;2.60;;;22.00;48.80;;;;;;10331158;28;20054;-62
2024/03/20 00:18:58;;;;;;;3.65;2.55;;;21.90;48.90;;;;;;10319397;28;20046;-62
2024/03/20 00:23:59;;;;;;;3.78;2.85;;;22.00;48.80;;;;;;10327946;28;20078;-62
2024/03/20 00:29:01;;;;;;;4.50;2.55;;;22.00;48.70;;;;;;10327023;28;20093;-62
2024/03/20 00:34:04;;;;;;;3.08;2.45;;;21.90;48.80;;;;;;10323324;28;20149;-60
2024/03/20 00:39:08;;;;;;;2.92;2.67;;;21.90;48.70;;;;;;10329336;28;20054;-62
2024/03/20 00:44:09;;;;;;;3.55;2.45;;;21.80;48.90;;;;;;10329804;28;20109;-63
2024/03/20 00:49:12;;;;;;;3.63;2.58;;;21.90;48.70;;;;;;10316235;28;20050;-62
2024/03/20 00:54:14;;;;;;;3.72;2.50;;;21.80;48.90;;;;;;10321610;28;20042;-62
2024/03/20 00:59:16;;;;;;;2.97;2.38;;;21.70;49.00;;;;;;10319957;28;20130;-62
2024/03/20 01:04:19;;;;;;;2.65;2.20;;;21.70;48.90;;;;;;10326349;28;20098;-62
2024/03/20 01:09:21;;;;;;;3.78;2.72;;;21.90;48.70;;;;;;10320249;28;20133;-62
2024/03/20 01:14:23;;;;;;;2.70;2.40;;;21.80;48.80;;;;;;10319693;28;20393;-62
2024/03/20 01:19:26;;;;;;;3.95;2.60;;;21.80;48.60;;;;;;10323633;28;20068;-61
2024/03/20 01:24:28;;;;;;;2.22;2.00;;;21.70;48.70;;;;;;10356205;28;20062;-62
2024/03/20 01:29:30;;;;;;;2.88;2.20;;;21.60;49.10;;;;;;10311704;28;20046;-62
2024/03/20 01:34:33;;;;;;;3.08;2.10;;;21.60;48.80;;;;;;10317643;28;20125;-62
2024/03/20 01:39:35;;;;;;;2.85;2.25;;;21.60;48.80;;;;;;10336723;28;20038;-63
2024/03/20 01:44:36;;;;;;;2.53;2.17;;;21.70;48.80;;;;;;10317665;28;20050;-61
2024/03/20 01:49:39;;;;;;;2.03;1.83;;;21.50;48.90;;;;;;10324075;28;20064;-62
2024/03/20 01:54:41;;;;;;;2.58;2.05;;;21.50;49.00;;;;;;10309097;28;20568;-62
2024/03/20 01:59:42;;;;;;;2.53;2.00;;;21.50;49.00;;;;;;10333108;28;20651;-61
2024/03/20 02:04:45;;;;;;;2.60;2.30;;;21.50;48.80;;;;;;10322247;28;20417;-61
2024/03/20 02:09:47;;;;;;;2.58;2.20;;;21.40;49.00;;;;;;10331160;28;20672;-62
2024/03/20 02:14:50;;;;;;;2.53;2.10;;;21.40;48.90;;;;;;10333892;28;20419;-62
2024/03/20 02:19:53;;;;;;;3.20;2.50;;;21.30;49.20;;;;;;10331256;28;20104;-61
2024/03/20 02:24:56;;;;;;;2.33;2.03;;;21.40;48.80;;;;;;10322755;28;20129;-62
2024/03/20 02:29:57;;;;;;;2.78;2.10;;;21.40;48.90;;;;;;10319608;28;20047;-62
2024/03/20 02:34:59;;;;;;;2.10;1.90;;;21.40;48.80;;;;;;10315301;28;20129;-61
2024/03/20 02:40:03;;;;;;;2.55;2.00;;;21.30;49.10;;;;;;10323301;28;20129;-62
2024/03/20 02:45:05;;;;;;;2.38;2.00;;;21.20;49.20;;;;;;10331540;28;20050;-62
2024/03/20 02:50:07;;;;;;;2.60;1.85;;;21.10;49.30;;;;;;10363137;28;20100;-62
2024/03/20 02:55:11;;;;;;;2.20;2.00;;;20.90;49.80;;;;;;10364150;28;20129;-61
2024/03/20 03:00:13;;;;;;;2.15;1.90;;;21.10;49.40;;;;;;10359573;28;20077;-62
2024/03/20 03:05:15;;;;;;;2.83;2.00;;;21.10;49.20;;;;;;10362920;28;20133;-62
2024/03/20 03:10:19;;;;;;;3.72;2.10;;;21.20;48.90;;;;;;10365783;28;20054;-62
2024/03/20 03:15:20;;;;;;;2.15;1.90;;;21.00;49.40;;;;;;10367181;28;20053;-62
2024/03/20 03:20:23;;;;;;;2.50;2.00;;;21.10;49.00;;;;;;10358203;28;20045;-61
2024/03/20 03:25:27;;;;;;;2.45;1.95;;;21.10;49.20;;;;;;10368115;28;20073;-62
2024/03/20 03:30:28;;;;;;;1.90;1.70;;;20.90;50.00;;;;;;10363578;28;20141;-62
2024/03/20 03:35:30;;;;;;;2.17;1.95;;;20.90;49.50;;;;;;10365209;28;20049;-60
2024/03/20 03:40:33;;;;;;;2.20;2.00;;;20.90;49.50;;;;;;10366150;28;20133;-62
2024/03/20 03:45:34;;;;;;;2.72;1.67;;;20.80;49.50;;;;;;10361824;28;20042;-62
2024/03/20 03:50:36;;;;;;;2.90;2.13;;;20.80;49.40;;;;;;10369365;28;20512;-62
2024/03/20 03:55:39;;;;;;;2.60;2.10;;;20.70;49.70;;;;;;10358543;28;20553;-62
2024/03/20 04:00:40;;;;;;;2.20;2.00;;;20.60;49.90;;;;;;10342690;28;20483;-62
2024/03/20 04:05:42;;;;;;;1.85;1.60;;;20.60;50.10;;;;;;10320418;28;20050;-62
2024/03/20 04:10:47;;;;;;;2.42;1.80;;;21.20;49.60;;;;;;10335952;28;20141;-62
2024/03/20 04:15:48;;;;;;;2.03;1.83;;;21.50;49.10;;;;;;10363797;28;20144;-62
2024/03/20 04:20:50;;;;;;;2.13;1.83;;;21.70;49.00;;;;;;10359790;28;20069;-62
2024/03/20 04:25:53;;;;;;;2.08;1.88;;;21.80;48.60;;;;;;10360767;28;20080;-61
2024/03/20 04:30:54;;;;;;;10.93;3.05;;;21.90;48.60;;;;;;10364612;28;20487;-61
2024/03/20 04:35:56;;;;;;;14.38;4.35;;;21.90;49.20;;;;;;10365043;28;20132;-59
2024/03/20 04:40:59;;;;;;;16.77;4.55;;;22.00;49.70;;;;;;10363070;28;20444;-61
2024/03/20 04:46:01;;;;;;;15.65;4.75;;;22.10;50.10;;;;;;10367382;28;20129;-61
2024/03/20 04:51:02;;;;;;;17.17;5.15;;;22.20;50.00;;;;;;10370777;28;20160;-61
2024/03/20 04:56:06;;;;;;;19.23;5.10;;;22.20;50.20;;;;;;10370096;28;20137;-60
2024/03/20 05:01:09;;;;;;;12.43;4.93;;;22.20;50.40;;;;;;10370161;28;20132;-61
2024/03/20 05:06:11;;;;;;;14.95;4.88;;;22.30;50.60;;;;;;10365117;28;20656;-58
2024/03/20 05:11:14;;;;;;;14.82;4.93;;;22.30;50.90;;;;;;10341996;28;20142;-61
2024/03/20 05:16:15;;;;;;;12.27;4.30;;;22.20;51.10;;;;;;10324545;28;20129;-60
2024/03/20 05:21:17;;;;;;;11.75;4.13;;;22.20;51.30;;;;;;10329413;28;20726;-60
2024/03/20 05:26:20;;;;;;;10.93;4.43;;;22.20;51.50;;;;;;10310900;28;20565;-62
2024/03/20 05:31:26;;;;;;;10.00;4.25;;;22.20;51.70;;;;;;10328143;28;20484;-60
2024/03/20 05:36:28;;;;;;;13.25;3.78;;;22.30;51.90;;;;;;10333068;28;20151;-58
2024/03/20 05:41:31;;;;;;;11.45;3.85;;;22.30;51.90;;;;;;10328851;28;20129;-58
2024/03/20 05:46:33;;;;;;;9.30;3.83;;;22.30;51.80;;;;;;10342687;28;20136;-57
2024/03/20 05:51:34;;;;;;;7.05;3.83;;;22.40;51.50;;;;;;10331524;28;20073;-57
2024/03/20 05:56:37;;;;;;;8.18;3.70;;;22.30;51.60;;;;;;10329454;28;20052;-60
2024/03/20 06:01:39;;;;;;;10.30;3.53;;;22.30;51.90;;;;;;10335474;28;20133;-60
2024/03/20 06:06:42;;;;;;;5.68;3.17;;;22.30;51.40;;;;;;10338799;28;20046;-59
2024/03/20 06:11:45;;;;;;;7.50;3.30;;;22.40;51.30;;;;;;10330983;28;20050;-60
2024/03/20 06:16:47;;;;;;;6.05;2.78;;;22.50;50.80;;;;;;10331325;28;20082;-60
2024/03/20 06:21:48;;;;;;;8.43;3.13;;;22.40;51.30;;;;;;10337045;28;20080;-58
2024/03/20 06:26:51;;;;;;;5.93;2.75;;;22.40;51.40;;;;;;10328889;28;20130;-60
2024/03/20 06:31:54;;;;;;;5.60;2.80;;;22.60;50.60;;;;;;10334064;28;20145;-59
2024/03/20 06:36:56;;;;;;;5.57;2.80;;;22.50;50.40;;;;;;10330722;28;20081;-59
2024/03/20 06:41:59;;;;;;;5.00;2.50;;;22.70;50.00;;;;;;10330694;28;20061;-58
2024/03/20 06:47:01;;;;;;;18.98;3.00;;;22.60;50.10;;;;;;10340945;28;20533;-59
2024/03/20 06:52:04;;;;;;;14.65;4.13;;;22.50;50.90;;;;;;10334983;28;20196;-60
2024/03/20 06:57:08;;;;;;;15.88;5.30;;;22.60;51.20;;;;;;10341794;28;20065;-59
2024/03/20 07:02:10;;;;;;;20.27;5.07;;;22.60;51.20;;;;;;10332265;28;20042;-60
2024/03/20 07:07:13;;;;;;;14.00;4.32;;;22.50;51.20;;;;;;10327680;28;20046;-60
2024/03/20 07:12:16;;;;;;;12.25;4.07;;;22.30;51.50;;;;;;10329777;28;20046;-58
2024/03/20 07:17:19;;;;;;;13.35;4.10;;;22.20;51.70;;;;;;10327539;28;20074;-58
2024/03/20 07:22:20;;;;;;;16.08;4.00;;;22.50;51.00;;;;;;10329385;28;20042;-60
2024/03/20 07:27:23;;;;;;;14.02;3.90;;;22.50;50.50;;;;;;10360424;28;20089;-58
2024/03/20 07:32:25;;;;;;;13.05;3.58;;;22.20;50.80;;;;;;10364976;28;20171;-61
2024/03/20 07:37:26;;;;;;;13.80;3.75;;;22.10;51.00;;;;;;10330345;28;20130;-60
2024/03/20 07:42:29;;;;;;;7.78;3.58;;;22.00;51.20;;;;;;10325360;28;20085;-57
2024/03/20 07:47:31;;;;;;;11.27;3.72;;;22.00;51.20;;;;;;10319265;28;20121;-61
2024/03/20 07:52:33;;;;;;;10.30;3.70;;;21.80;51.30;;;;;;10317916;28;20137;-59
2024/03/20 07:57:36;;;;;;;10.98;3.90;;;21.70;51.40;;;;;;10323737;28;20080;-60
2024/03/20 08:02:37;;;;;;;10.55;3.75;;;21.80;51.40;;;;;;10322341;28;20493;-61
2024/03/20 08:07:39;;;;;;;7.00;3.30;;;21.70;51.40;;;;;;10316247;28;20126;-58
2024/03/20 08:12:42;;;;;;;7.75;3.60;;;21.70;51.50;;;;;;10314190;28;20141;-58
2024/03/20 08:17:44;;;;;;;7.75;3.42;;;21.60;51.40;;;;;;10308753;28;20054;-59
2024/03/20 08:22:46;;;;;;;7.90;3.47;;;21.60;51.50;;;;;;10311248;28;20449;-61
2024/03/20 08:27:49;;;;;;;6.85;3.50;;;21.60;51.40;;;;;;10313677;28;20157;-59
2024/03/20 08:32:51;;;;;;;5.38;3.08;;;21.50;51.60;;;;;;10310700;28;20057;-61
2024/03/20 08:37:54;;;;;;;6.53;3.30;;;21.50;51.60;;;;;;10315951;28;20201;-61
2024/03/20 08:42:57;;;;;;;7.00;3.17;;;21.40;51.70;;;;;;10313577;28;20104;-60
2024/03/20 08:47:59;;;;;;;7.20;3.53;;;21.50;51.50;;;;;;10316356;28;20141;-59
2024/03/20 08:53:02;;;;;;;4.35;3.10;;;21.50;51.40;;;;;;10323720;28;20054;-61
2024/03/20 08:58:05;;;;;;;5.47;2.90;;;21.50;51.30;;;;;;10322239;28;20038;-61
2024/03/20 09:03:07;;;;;;;4.75;2.78;;;21.60;51.20;;;;;;10316776;28;20487;-61
2024/03/20 09:08:09;;;;;;;4.25;2.90;;;21.70;51.00;;;;;;10310488;28;20097;-61
2024/03/20 09:13:12;;;;;;;5.57;2.80;;;21.70;50.80;;;;;;10308912;28;20048;-61
2024/03/20 09:18:14;;;;;;;5.50;2.80;;;21.70;50.80;;;;;;10311790;28;20429;-59
2024/03/20 09:23:15;;;;;;;4.78;2.67;;;21.70;50.70;;;;;;10312566;28;20071;-61
2024/03/20 09:28:19;;;;;;;4.90;2.80;;;21.80;50.50;;;;;;10312994;28;20069;-59
2024/03/20 09:33:21;;;;;;;5.05;2.80;;;22.00;50.30;;;;;;10311475;28;20096;-61
2024/03/20 09:38:23;;;;;;;5.43;2.75;;;21.90;50.30;;;;;;10309736;28;20048;-60
2024/03/20 09:43:26;;;;;;;4.38;2.55;;;21.90;50.40;;;;;;10309243;28;20042;-59
2024/03/20 09:48:28;;;;;;;4.18;2.45;;;21.90;50.30;;;;;;10305837;28;20044;-61
2024/03/20 09:53:34;;;;;;;5.88;2.45;;;21.90;50.30;;;;;;10308398;28;20137;-60
2024/03/20 09:58:37;;;;;;;4.53;2.70;;;21.90;50.30;;;;;;10310847;28;20650;-60
2024/03/20 10:03:39;;;;;;;3.30;2.42;;;22.00;50.20;;;;;;10319571;28;20411;-61
2024/03/20 10:08:40;;;;;;;3.70;2.53;;;21.90;50.30;;;;;;10317551;28;20517;-60
2024/03/20 10:13:43;;;;;;;3.63;2.60;;;22.00;50.10;;;;;;10316224;28;20146;-61
2024/03/20 10:18:45;;;;;;;4.10;2.00;;;22.10;49.80;;;;;;10312262;28;20042;-59
2024/03/20 10:23:47;;;;;;;3.53;2.33;;;22.10;49.80;;;;;;10306648;28;20128;-59
2024/03/20 10:28:50;;;;;;;2.70;2.40;;;22.20;49.70;;;;;;10305864;28;20130;-61
2024/03/20 10:33:52;;;;;;;4.32;2.15;;;22.20;49.60;;;;;;10318304;28;20054;-58
2024/03/20 10:38:53;;;;;;;2.75;2.22;;;22.20;49.50;;;;;;10318352;28;20057;-61
2024/03/20 10:43:56;;;;;;;2.80;2.08;;;22.00;49.80;;;;;;10318543;28;20133;-59
2024/03/20 10:48:58;;;;;;;3.45;2.10;;;22.10;49.60;;;;;;10315785;28;20577;-61
2024/03/20 10:54:01;;;;;;;3.58;2.20;;;22.10;49.60;;;;;;10312769;28;20062;-59
2024/03/20 10:59:05;;;;;;;3.60;2.10;;;22.10;49.70;;;;;;10314547;28;20074;-59
2024/03/20 11:04:07;;;;;;;2.00;1.73;;;22.00;49.80;;;;;;10311584;28;20058;-61
2024/03/20 11:09:20;;;;;;;2.53;1.90;;;22.10;50.10;;;;;;10310767;28;20051;-61
2024/03/20 11:14:30;;;;;;;2.78;2.00;;;22.10;49.70;;;;;;10357679;28;20061;-61
2024/03/20 11:19:32;;;;;;;2.03;1.80;;;22.20;49.80;;;;;;10360168;28;20045;-61
2024/03/20 11:24:34;;;;;;;2.95;1.85;;;22.20;49.70;;;;;;10357549;28;20050;-60
2024/03/20 11:29:37;;;;;;;2.67;1.80;;;22.30;49.50;;;;;;10356521;28;20508;-61
2024/03/20 11:34:42;;;;;;;2.08;1.80;;;22.20;49.70;;;;;;10353792;28;20520;-60
2024/03/20 11:39:44;;;;;;;3.20;1.90;;;22.30;49.70;;;;;;10348484;28;20050;-60
2024/03/20 11:44:47;;;;;;;2.08;1.50;;;22.30;49.60;;;;;;10344413;28;20042;-61
2024/03/20 11:49:49;;;;;;;2.03;1.73;;;22.40;49.40;;;;;;10355150;28;20041;-61
2024/03/20 11:54:50;;;;;;;1.92;1.60;;;22.40;49.50;;;;;;10356534;28;20046;-61
2024/03/20 11:59:55;;;;;;;3.00;1.70;;;22.40;49.30;;;;;;10354794;28;20073;-61
2024/03/20 12:04:56;;;;;;;1.92;1.52;;;22.40;49.10;;;;;;10352374;28;20046;-61
2024/03/20 12:09:58;;;;;;;2.17;1.35;;;22.40;49.40;;;;;;10347595;28;20069;-60
2024/03/20 12:15:01;;;;;;;2.70;1.50;;;22.40;49.20;;;;;;10347949;28;20050;-59
2024/03/20 12:20:03;;;;;;;1.80;1.30;;;22.40;49.10;;;;;;10351453;28;20412;-60
2024/03/20 12:25:08;;;;;;;1.77;1.50;;;22.40;49.20;;;;;;10357039;28;20049;-60
2024/03/20 12:30:12;;;;;;;1.83;1.40;;;22.30;49.20;;;;;;10361423;28;20053;-56
2024/03/20 12:35:14;;;;;;;2.03;1.58;;;22.40;49.20;;;;;;10357816;28;20101;-59
2024/03/20 12:40:16;;;;;;;1.85;1.60;;;22.30;49.20;;;;;;10351966;28;20169;-60
2024/03/20 12:45:19;;;;;;;2.03;1.60;;;22.30;49.30;;;;;;10351676;28;20129;-60
2024/03/20 12:50:20;;;;;;;2.05;1.60;;;22.30;49.20;;;;;;10347948;28;20132;-60
2024/03/20 12:55:23;;;;;;;1.85;1.30;;;22.40;49.00;;;;;;10353715;28;20132;-60
2024/03/20 13:00:27;;;;;;;1.95;1.63;;;22.30;49.00;;;;;;10353706;28;20046;-60
2024/03/20 13:05:29;;;;;;;1.35;1.25;;;22.30;49.20;;;;;;10355174;28;20045;-60
2024/03/20 13:10:32;;;;;;;1.50;1.40;;;22.40;49.50;;;;;;10352736;28;20092;-59
2024/03/20 13:15:40;;;;;;;2.28;1.40;;;22.30;49.00;;;;;;10353486;28;20073;-62
2024/03/20 13:20:41;;;;;;;2.17;1.50;;;22.20;49.30;;;;;;10350547;28;20046;-60
2024/03/20 13:25:43;;;;;;;1.67;1.33;;;22.10;49.30;;;;;;10351626;28;20108;-60
2024/03/20 13:30:49;;;;;;;1.73;1.20;;;22.10;49.40;;;;;;10355001;28;20052;-59
2024/03/20 13:35:50;;;;;;;1.77;1.50;;;21.90;49.70;;;;;;10358339;28;20056;-60
2024/03/20 13:41:01;;;;;;;1.48;1.25;;;21.90;49.80;;;;;;10362628;28;20050;-61
2024/03/20 13:46:05;;;;;;;2.15;1.33;;;21.90;49.70;;;;;;10360938;28;20423;-59
2024/03/20 13:51:07;;;;;;;2.35;1.48;;;22.00;49.50;;;;;;10358055;28;20050;-61
2024/03/20 13:56:13;;;;;;;2.28;1.40;;;22.10;49.30;;;;;;10353600;28;20060;-61
2024/03/20 14:01:16;;;;;;;1.75;1.23;;;21.90;49.50;;;;;;10352223;28;20460;-61
2024/03/20 14:06:19;;;;;;;1.63;1.35;;;22.10;49.30;;;;;;10362665;28;20141;-61
2024/03/20 14:11:21;;;;;;;2.95;1.80;;;22.20;49.00;;;;;;10359906;28;20888;-60
2024/03/20 14:16:26;;;;;;;2.10;1.60;;;22.50;48.30;;;;;;10357681;28;20073;-61
2024/03/20 14:21:27;;;;;;;2.20;2.00;;;22.60;48.00;;;;;;10352209;28;20042;-60
2024/03/20 14:26:29;;;;;;;2.10;1.70;;;22.70;48.00;;;;;;10355624;28;20121;-60
2024/03/20 14:31:32;;;;;;;2.97;1.70;;;22.70;47.90;;;;;;10357594;28;20132;-60
2024/03/20 14:36:34;;;;;;;2.35;1.58;;;22.70;47.90;;;;;;10362796;28;20076;-61
2024/03/20 14:41:36;;;;;;;1.58;1.48;;;22.60;48.10;;;;;;10360810;28;20056;-61
2024/03/20 14:46:42;;;;;;;2.63;1.70;;;22.60;48.10;;;;;;10363511;28;20064;-61
2024/03/20 14:51:44;;;;;;;2.22;1.65;;;22.60;48.10;;;;;;10368428;28;20588;-61
2024/03/20 14:56:46;;;;;;;1.85;1.60;;;22.80;47.90;;;;;;10365162;28;20057;-60
2024/03/20 15:01:49;;;;;;;1.63;1.30;;;23.00;47.50;;;;;;10364672;28;20048;-61
2024/03/20 15:06:51;;;;;;;1.85;1.58;;;23.20;47.40;;;;;;10360306;28;20459;-61
2024/03/20 15:11:53;;;;;;;1.65;1.40;;;23.10;47.30;;;;;;10361115;28;20124;-61
2024/03/20 15:16:55;;;;;;;1.52;1.30;;;23.20;47.10;;;;;;10364896;28;20053;-61
2024/03/20 15:21:57;;;;;;;1.73;1.20;;;23.20;47.20;;;;;;10361181;28;20048;-61
2024/03/20 15:26:59;;;;;;;1.75;1.40;;;23.20;47.10;;;;;;10355609;28;20046;-61
2024/03/20 15:32:02;;;;;;;2.40;1.20;;;23.10;47.30;;;;;;10349936;28;20058;-59
2024/03/20 15:37:04;;;;;;;1.65;1.30;;;23.20;47.10;;;;;;10346940;28;20056;-60
2024/03/20 15:42:06;;;;;;;1.45;1.20;;;23.30;47.00;;;;;;10350983;28;20077;-60
2024/03/20 15:47:08;;;;;;;2.75;1.38;;;23.30;46.80;;;;;;10359922;28;20050;-60
2024/03/20 15:52:10;;;;;;;3.03;1.30;;;23.30;46.80;;;;;;10336450;28;20567;-59
2024/03/20 15:57:12;;;;;;;3.05;1.10;;;23.40;46.70;;;;;;10319515;28;20046;-60
2024/03/20 16:02:17;;;;;;;4.40;1.40;;;23.40;46.60;;;;;;10322265;28;20133;-59
2024/03/20 16:07:18;;;;;;;5.07;1.70;;;23.40;46.60;;;;;;10322866;28;20074;-60
2024/03/20 16:12:21;;;;;;;4.60;1.25;;;23.40;47.10;;;;;;10324048;28;20319;-60
2024/03/20 16:17:23;;;;;;;5.97;1.30;;;23.40;47.40;;;;;;10316758;28;20423;-61
2024/03/20 16:22:25;;;;;;;3.85;1.45;;;23.40;47.20;;;;;;10320036;28;20077;-60
2024/03/20 16:27:27;;;;;;;6.63;1.58;;;23.30;47.30;;;;;;10319205;28;20090;-60
2024/03/20 16:32:30;;;;;;;2.83;1.30;;;23.40;47.30;;;;;;10318011;28;20404;-60
2024/03/20 16:37:32;;;;;;;3.10;1.40;;;23.40;47.30;;;;;;10313406;28;20136;-61
2024/03/20 16:42:33;;;;;;;3.25;1.25;;;23.40;47.10;;;;;;10315859;28;20493;-60
2024/03/20 16:47:36;;;;;;;8.35;1.50;;;23.40;47.00;;;;;;10313534;28;20058;-60
2024/03/20 16:52:38;;;;;;;3.78;1.30;;;23.40;47.00;;;;;;10313467;28;20066;-61
2024/03/20 16:57:40;;;;;;;4.47;1.38;;;23.50;47.00;;;;;;10315322;28;20042;-61
2024/03/20 17:02:43;;;;;;;2.53;1.38;;;23.40;47.40;;;;;;10318557;28;20054;-60
2024/03/20 17:07:45;;;;;;;5.75;1.88;;;23.30;47.80;;;;;;10320949;28;20042;-59
2024/03/20 17:12:47;;;;;;;5.90;1.27;;;23.30;48.00;;;;;;10321303;28;20050;-59
2024/03/20 17:17:51;;;;;;;5.43;1.50;;;23.30;48.40;;;;;;10323194;28;20068;-60
2024/03/20 17:22:56;;;;;;;3.83;1.23;;;23.30;49.40;;;;;;10320608;28;20057;-59
2024/03/20 17:27:58;;;;;;;6.78;1.77;;;23.20;50.90;;;;;;10317347;28;20077;-60
2024/03/20 17:33:01;;;;;;;5.82;1.80;;;22.90;51.50;;;;;;10319883;28;20042;-59
2024/03/20 17:38:02;;;;;;;5.00;1.80;;;23.20;50.90;;;;;;10313394;28;20497;-58
2024/03/20 17:43:04;;;;;;;6.95;1.85;;;22.90;51.50;;;;;;10318935;28;20395;-57
2024/03/20 17:48:08;;;;;;;4.35;1.40;;;23.30;50.90;;;;;;10315966;28;20042;-60
2024/03/20 17:53:10;;;;;;;5.50;1.52;;;23.10;51.50;;;;;;10311435;28;20497;-62
2024/03/20 17:58:12;;;;;;;14.18;2.20;;;23.10;51.50;;;;;;10314282;28;20133;-61
2024/03/20 18:03:14;;;;;;;9.68;1.50;;;23.00;52.30;;;;;;10316240;28;20875;-62
2024/03/20 18:08:16;;;;;;;9.52;1.65;;;23.10;52.00;;;;;;10308123;28;20161;-60
2024/03/20 18:13:18;;;;;;;6.63;1.38;;;23.10;52.10;;;;;;10314273;28;20145;-62
2024/03/20 18:18:21;;;;;;;16.13;1.60;;;23.10;52.40;;;;;;10316867;28;20061;-58
2024/03/20 18:23:23;;;;;;;10.63;1.50;;;23.20;52.10;;;;;;10315169;28;20157;-60
2024/03/20 18:28:25;;;;;;;15.68;1.63;;;23.40;51.30;;;;;;10318010;28;20121;-56
2024/03/20 18:33:28;;;;;;;5.90;1.50;;;23.70;50.80;;;;;;10313839;28;20417;-58
2024/03/20 18:38:30;;;;;;;8.07;1.33;;;23.80;50.40;;;;;;10318593;28;20039;-60
2024/03/20 18:43:31;;;;;;;7.72;1.27;;;23.70;50.40;;;;;;10312564;28;20046;-61
2024/03/20 18:48:34;;;;;;;5.63;1.60;;;23.70;50.40;;;;;;10311159;28;20409;-59
2024/03/20 18:53:36;;;;;;;4.53;1.35;;;23.90;49.90;;;;;;10324760;28;20141;-61
2024/03/20 18:58:37;;;;;;;9.13;1.52;;;23.90;49.90;;;;;;10323114;28;20158;-61
2024/03/20 19:03:40;;;;;;;9.52;1.40;;;24.20;49.20;;;;;;10321429;28;20138;-61
2024/03/20 19:08:44;;;;;;;7.30;1.33;;;24.30;48.90;;;;;;10313823;28;20137;-61
2024/03/20 19:13:45;;;;;;;2.22;1.10;;;24.30;48.70;;;;;;10312778;28;20054;-60
2024/03/20 19:18:49;;;;;;;2.13;1.00;;;24.20;48.80;;;;;;10314622;28;20138;-61
2024/03/20 19:23:50;;;;;;;12.15;1.38;;;24.20;48.70;;;;;;10317283;28;20054;-62
2024/03/20 19:28:52;;;;;;;10.75;1.40;;;24.40;48.50;;;;;;10311445;28;20116;-61
2024/03/20 19:33:55;;;;;;;2.05;1.10;;;24.50;48.00;;;;;;10321453;28;20133;-60
2024/03/20 19:38:56;;;;;;;8.80;1.40;;;24.40;48.40;;;;;;10321646;28;20133;-62
2024/03/20 19:43:58;;;;;;;8.13;1.60;;;24.70;47.80;;;;;;10323235;28;20153;-61
2024/03/20 19:49:01;;;;;;;6.15;1.30;;;24.60;47.50;;;;;;10318692;28;20065;-61
2024/03/20 19:54:03;;;;;;;5.15;1.27;;;24.30;48.10;;;;;;10320894;28;20042;-59
2024/03/20 19:59:04;;;;;;;12.77;1.90;;;24.50;47.80;;;;;;10321090;28;20049;-58
2024/03/20 20:04:07;;;;;;;5.50;1.90;;;24.20;48.10;;;;;;10318063;28;20061;-60
2024/03/20 20:09:10;;;;;;;4.90;2.15;;;23.60;49.40;;;;;;10321001;28;20511;-60
2024/03/20 20:14:11;;;;;;;7.15;2.25;;;23.10;50.20;;;;;;10324396;28;20047;-60
2024/03/20 20:19:14;;;;;;;5.32;2.38;;;22.90;50.70;;;;;;10323577;28;20046;-60
2024/03/20 20:24:16;;;;;;;4.95;2.45;;;22.70;51.10;;;;;;10319043;28;20134;-59
2024/03/20 20:29:20;;;;;;;7.93;2.70;;;22.80;50.70;;;;;;10318603;28;20465;-59
2024/03/20 20:34:23;;;;;;;13.27;4.05;;;22.60;51.10;;;;;;10325741;28;20185;-56
2024/03/20 20:39:26;;;;;;;21.45;5.68;;;22.40;51.60;;;;;;10316479;28;20052;-60
2024/03/20 20:44:28;;;;;;;15.20;5.90;;;22.30;51.80;;;;;;10353442;28;20049;-65
2024/03/20 20:49:31;;;;;;;16.33;6.25;;;22.20;52.00;;;;;;10354431;28;20054;-58
2024/03/20 20:54:33;;;;;;;20.75;6.30;;;22.20;52.30;;;;;;10359398;28;20049;-60
2024/03/20 20:59:36;;;;;;;20.85;6.10;;;22.00;52.40;;;;;;10357513;28;20052;-60
2024/03/20 21:20:38;;;;;;;12.10;5.88;;;21.80;52.60;;;;;;10347465;28;20046;-59
2024/03/20 21:25:40;;;;;;;13.73;6.13;;;21.70;52.60;;;;;;10344180;28;20064;-59
2024/03/20 21:30:41;;;;;;;11.90;5.57;;;21.70;52.50;;;;;;10357947;28;20049;-59
2024/03/20 21:35:45;;;;;;;11.05;5.32;;;21.70;52.40;;;;;;10366504;28;20050;-59
2024/03/20 21:40:47;;;;;;;15.63;6.28;;;21.70;52.50;;;;;;10369313;28;20467;-59
2024/03/20 21:45:48;;;;;;;13.00;5.60;;;21.70;52.30;;;;;;10369031;28;20050;-59
2024/03/20 21:50:52;;;;;;;13.55;5.03;;;21.70;52.30;;;;;;10354769;28;20505;-58
2024/03/20 21:55:54;;;;;;;10.40;5.70;;;21.70;52.30;;;;;;10354914;28;20054;-57
2024/03/20 22:00:56;;;;;;;10.13;5.15;;;21.60;52.20;;;;;;10326344;28;20050;-60
2024/03/20 22:06:00;;;;;;;13.30;5.65;;;21.60;52.10;;;;;;10326281;28;20242;-57
2024/03/20 22:11:02;;;;;;;10.02;5.00;;;21.60;52.00;;;;;;10316639;28;20054;-57
2024/03/20 22:16:04;;;;;;;9.98;5.57;;;21.60;52.10;;;;;;10313065;28;20472;-58
2024/03/20 22:21:10;;;;;;;9.77;5.32;;;21.60;52.10;;;;;;10315270;28;20050;-59
2024/03/20 22:26:13;;;;;;;8.48;5.40;;;21.60;52.10;;;;;;10314194;28;20058;-58
2024/03/20 22:31:14;;;;;;;12.60;5.80;;;21.50;52.30;;;;;;10326421;28;20618;-58
2024/03/20 22:36:19;;;;;;;9.23;5.60;;;21.50;52.20;;;;;;10324957;28;20423;-60
2024/03/20 22:41:20;;;;;;;10.73;6.25;;;21.40;52.30;;;;;;10331783;28;20074;-57
2024/03/20 22:46:24;;;;;;;11.90;6.35;;;21.40;52.50;;;;;;10329140;28;20042;-59
2024/03/20 22:51:27;;;;;;;12.13;6.47;;;21.30;52.60;;;;;;10324691;28;20054;-58
2024/03/20 22:56:29;;;;;;;8.02;5.85;;;21.30;52.50;;;;;;10327585;28;20047;-58
2024/03/20 23:01:31;;;;;;;8.35;5.80;;;21.30;52.60;;;;;;10330862;28;20557;-60
2024/03/20 23:06:34;;;;;;;8.70;6.07;;;21.30;52.50;;;;;;10334524;28;20038;-60
2024/03/20 23:11:36;;;;;;;9.90;6.07;;;21.30;52.50;;;;;;10326373;28;20129;-60
2024/03/20 23:16:37;;;;;;;9.63;6.18;;;21.30;52.50;;;;;;10325534;28;20066;-59
2024/03/20 23:21:40;;;;;;;8.02;5.80;;;21.30;52.40;;;;;;10331630;28;20123;-58
2024/03/20 23:26:42;;;;;;;8.43;6.05;;;21.30;52.40;;;;;;10330468;28;20042;-59
2024/03/20 23:31:44;;;;;;;8.60;5.47;;;21.30;52.20;;;;;;10331457;28;20121;-59
2024/03/20 23:36:47;;;;;;;9.27;5.70;;;21.30;52.20;;;;;;10350525;28;20132;-58
2024/03/20 23:41:48;;;;;;;9.98;6.07;;;21.30;52.10;;;;;;10365205;28;20049;-59
2024/03/20 23:46:50;;;;;;;8.52;5.70;;;21.30;52.00;;;;;;10345138;28;20130;-58
2024/03/20 23:51:53;;;;;;;9.30;5.93;;;21.40;51.50;;;;;;10334665;28;20419;-60
2024/03/20 23:56:55;;;;;;;8.88;5.65;;;21.40;51.70;;;;;;10333149;28;20057;-59
